createdAt,value
2022-08-17T00:00:52.478Z,77.62
2022-08-17T00:03:34.307Z,77.70
2022-08-17T00:06:16.961Z,77.75
2022-08-17T00:09:01.695Z,78.37
2022-08-17T00:11:44.659Z,78.38
2022-08-17T00:14:41.277Z,78.59
2022-08-17T00:17:21.108Z,78.16
2022-08-17T00:20:03.775Z,78.11
2022-08-17T00:22:43.522Z,78.19
2022-08-17T00:25:22.238Z,80.42
2022-08-17T00:28:03.090Z,79.48
2022-08-17T00:30:52.905Z,80.33
2022-08-17T00:33:35.629Z,79.97
2022-08-17T00:36:10.387Z,81.05
2022-08-17T00:38:47.998Z,81.79
2022-08-17T00:41:29.759Z,81.48
2022-08-17T00:44:13.732Z,81.07
2022-08-17T00:46:51.228Z,81.81
2022-08-17T00:49:29.976Z,81.38
2022-08-17T00:52:12.771Z,81.38
2022-08-17T00:54:50.729Z,81.23
2022-08-17T00:57:31.368Z,84.01
2022-08-17T01:00:15.073Z,82.32
2022-08-17T01:02:52.977Z,81.90
2022-08-17T01:05:34.644Z,81.49
2022-08-17T01:08:16.252Z,81.31
2022-08-17T01:11:01.770Z,81.21
2022-08-17T01:13:42.814Z,83.44
2022-08-17T01:16:28.797Z,82.93
2022-08-17T01:19:12.630Z,81.51
2022-08-17T01:21:59.185Z,82.91
2022-08-17T01:24:36.895Z,82.32
2022-08-17T01:27:18.514Z,82.05
2022-08-17T01:30:02.553Z,81.23
2022-08-17T01:32:44.323Z,80.95
2022-08-17T01:35:23.966Z,81.40
2022-08-17T01:38:07.933Z,81.16
2022-08-17T01:40:57.751Z,81.10
2022-08-17T01:43:39.575Z,80.90
2022-08-17T01:46:24.295Z,80.88
2022-08-17T01:49:03.943Z,81.01
2022-08-17T01:51:40.841Z,80.98
2022-08-17T01:54:20.437Z,81.38
2022-08-17T01:56:58.046Z,81.37
2022-08-17T01:59:42.314Z,81.05
2022-08-17T02:02:31.204Z,81.10
2022-08-17T02:05:10.368Z,80.89
2022-08-17T02:08:00.438Z,80.96
2022-08-17T02:10:40.143Z,81.15
2022-08-17T02:13:23.774Z,81.49
2022-08-17T02:16:06.640Z,81.45
2022-08-17T02:18:44.319Z,81.68
2022-08-17T02:21:27.070Z,81.38
2022-08-17T02:24:09.823Z,81.42
2022-08-17T02:26:51.806Z,81.31
2022-08-17T02:29:29.277Z,81.14
2022-08-17T02:32:12.126Z,81.04
2022-08-17T02:35:02.913Z,81.46
2022-08-17T02:37:45.786Z,80.89
2022-08-17T02:40:36.397Z,82.90
2022-08-17T02:43:16.365Z,82.07
2022-08-17T02:45:56.293Z,81.28
2022-08-17T02:48:43.039Z,80.84
2022-08-17T02:51:20.545Z,80.95
2022-08-17T02:54:39.291Z,81.23
2022-08-17T02:56:57.030Z,81.33
2022-08-17T02:59:37.159Z,81.30
2022-08-17T03:02:15.718Z,80.94
2022-08-17T03:04:59.954Z,81.24
2022-08-17T03:07:36.515Z,80.91
2022-08-17T03:10:18.236Z,80.53
2022-08-17T03:12:57.820Z,80.84
2022-08-17T03:15:40.632Z,81.53
2022-08-17T03:18:25.683Z,81.11
2022-08-17T03:21:07.199Z,81.48
2022-08-17T03:23:44.958Z,84.11
2022-08-17T03:26:29.635Z,84.08
2022-08-17T03:29:06.626Z,84.43
2022-08-17T03:31:49.627Z,83.85
2022-08-17T03:34:26.079Z,84.97
2022-08-17T03:37:04.896Z,85.99
2022-08-17T03:39:43.660Z,85.84
2022-08-17T03:42:32.597Z,86.62
2022-08-17T03:45:15.632Z,85.50
2022-08-17T03:48:12.249Z,85.18
2022-08-17T03:51:10.339Z,84.99
2022-08-17T03:54:21.055Z,86.13
2022-08-17T03:57:16.326Z,87.59
2022-08-17T03:59:56.720Z,87.18
2022-08-17T04:02:36.226Z,87.84
2022-08-17T04:05:15.005Z,88.22
2022-08-17T04:07:53.758Z,88.60
2022-08-17T04:10:31.529Z,88.53
2022-08-17T04:13:13.310Z,88.58
2022-08-17T04:15:54.172Z,87.32
2022-08-17T04:18:32.831Z,87.79
2022-08-17T04:21:17.687Z,89.02
2022-08-17T04:23:59.554Z,87.38
2022-08-17T04:26:53.947Z,86.88
2022-08-17T04:29:54.113Z,86.98
2022-08-17T04:33:10.824Z,87.46
2022-08-17T04:35:37.634Z,86.86
2022-08-17T04:38:21.499Z,85.99
2022-08-17T04:41:18.375Z,85.74
2022-08-17T04:44:01.194Z,85.37
2022-08-17T04:46:37.694Z,84.76
2022-08-17T04:49:15.361Z,84.20
2022-08-17T04:51:56.329Z,84.17
2022-08-17T04:54:37.957Z,83.52
2022-08-17T04:57:14.556Z,83.13
2022-08-17T04:59:55.461Z,82.44
2022-08-17T05:02:31.870Z,82.02
2022-08-17T05:05:14.945Z,81.56
2022-08-17T05:07:52.566Z,81.16
2022-08-17T05:10:33.086Z,80.63
2022-08-17T05:13:14.655Z,79.76
2022-08-17T05:15:52.320Z,79.32
2022-08-17T05:18:30.975Z,78.41
2022-08-17T05:21:10.713Z,78.36
2022-08-17T05:23:54.972Z,77.59
2022-08-17T05:26:42.129Z,77.19
2022-08-17T05:29:22.557Z,76.03
2022-08-17T05:32:37.331Z,75.55
2022-08-17T05:35:15.063Z,73.21
2022-08-17T05:37:54.530Z,73.17
2022-08-17T05:40:33.371Z,71.70
2022-08-17T05:43:19.651Z,71.00
2022-08-17T05:46:16.402Z,70.95
2022-08-17T05:48:56.026Z,69.35
2022-08-17T05:51:37.505Z,68.94
2022-08-17T05:54:31.575Z,70.05
2022-08-17T05:57:27.746Z,67.55
2022-08-17T06:00:18.370Z,68.09
2022-08-17T06:03:08.128Z,66.21
2022-08-17T06:06:32.004Z,65.19
2022-08-17T06:09:10.442Z,63.65
2022-08-17T06:12:06.134Z,63.96
2022-08-17T06:15:00.253Z,63.89
2022-08-17T06:17:34.656Z,62.01
2022-08-17T06:20:18.148Z,63.21
2022-08-17T06:22:58.558Z,61.41
2022-08-17T06:25:55.201Z,62.03
2022-08-17T06:28:41.831Z,61.41
2022-08-17T06:31:29.497Z,58.09
2022-08-17T06:34:07.814Z,57.21
2022-08-17T06:36:59.681Z,56.67
2022-08-17T06:40:02.372Z,54.65
2022-08-17T06:42:55.042Z,53.33
2022-08-17T06:45:52.943Z,54.39
2022-08-17T06:49:00.417Z,53.65
2022-08-17T06:51:48.000Z,52.62
2022-08-17T06:54:49.753Z,51.67
2022-08-17T06:57:33.950Z,49.74
2022-08-17T07:00:16.327Z,50.07
2022-08-17T07:03:01.792Z,48.08
2022-08-17T07:05:51.332Z,49.72
2022-08-17T07:08:50.702Z,48.95
2022-08-17T07:12:06.674Z,48.01
2022-08-17T07:14:52.807Z,48.61
2022-08-17T07:17:47.699Z,47.66
2022-08-17T07:20:28.858Z,47.21
2022-08-17T07:23:25.054Z,44.89
2022-08-17T07:26:10.579Z,46.19
2022-08-17T07:28:48.894Z,43.87
2022-08-17T07:31:29.309Z,43.00
2022-08-17T07:34:17.761Z,43.79
2022-08-17T07:37:07.103Z,42.83
2022-08-17T07:40:14.953Z,41.44
2022-08-17T07:42:46.686Z,41.41
2022-08-17T07:45:41.257Z,41.92
2022-08-17T07:48:27.990Z,42.38
2022-08-17T07:51:03.294Z,42.02
2022-08-17T07:53:43.712Z,40.56
2022-08-17T07:56:41.152Z,40.26
2022-08-17T07:59:33.430Z,38.64
2022-08-17T08:02:43.071Z,39.51
2022-08-17T08:05:49.336Z,39.24
2022-08-17T08:08:41.105Z,39.33
2022-08-17T08:11:34.546Z,38.15
2022-08-17T08:14:32.898Z,38.53
2022-08-17T08:17:15.518Z,38.23
2022-08-17T08:19:54.721Z,39.09
2022-08-17T08:22:43.228Z,38.34
2022-08-17T08:25:49.708Z,37.82
2022-08-17T08:28:43.274Z,35.37
2022-08-17T08:31:55.701Z,33.91
2022-08-17T08:34:45.032Z,34.80
2022-08-17T08:37:55.324Z,35.03
2022-08-17T08:40:40.282Z,35.17
2022-08-17T08:43:39.208Z,35.71
2022-08-17T08:46:48.076Z,35.09
2022-08-17T08:50:30.210Z,33.33
2022-08-17T08:53:22.775Z,33.36
2022-08-17T08:56:13.185Z,32.41
2022-08-17T08:59:06.072Z,33.51
2022-08-17T09:01:53.043Z,32.95
2022-08-17T09:05:12.769Z,32.64
2022-08-17T09:08:01.712Z,31.42
2022-08-17T09:10:59.072Z,31.92
2022-08-17T09:13:54.546Z,31.74
2022-08-17T09:16:56.399Z,30.95
2022-08-17T09:19:54.333Z,32.20
2022-08-17T09:22:40.739Z,31.29
2022-08-17T09:25:25.169Z,30.65
2022-08-17T09:28:09.938Z,30.01
2022-08-17T09:30:52.863Z,30.88
2022-08-17T09:33:30.479Z,29.29
2022-08-17T09:36:21.602Z,28.96
2022-08-17T09:39:16.994Z,29.54
2022-08-17T09:42:05.406Z,30.41
2022-08-17T09:44:48.221Z,28.55
2022-08-17T09:47:54.173Z,28.76
2022-08-17T09:51:05.454Z,27.36
2022-08-17T09:53:40.209Z,28.89
2022-08-17T09:56:46.369Z,28.05
2022-08-17T09:59:43.778Z,27.31
2022-08-17T10:02:44.622Z,27.17
2022-08-17T10:05:28.785Z,27.35
2022-08-17T10:08:25.999Z,27.53
2022-08-17T10:11:12.927Z,26.97
2022-08-17T10:13:55.734Z,27.01
2022-08-17T10:16:50.483Z,27.80
2022-08-17T10:19:44.252Z,28.03
2022-08-17T10:22:58.015Z,27.71
2022-08-17T10:25:55.177Z,27.86
2022-08-17T10:28:39.309Z,27.98
2022-08-17T10:31:37.935Z,27.30
2022-08-17T10:34:44.875Z,26.25
2022-08-17T10:37:23.953Z,26.12
2022-08-17T10:40:26.602Z,25.68
2022-08-17T10:43:04.528Z,25.33
2022-08-17T10:45:42.783Z,24.39
2022-08-17T10:48:40.244Z,26.31
2022-08-17T10:51:40.509Z,25.69
2022-08-17T10:54:41.015Z,24.93
2022-08-17T10:57:35.886Z,24.42
2022-08-17T11:00:17.603Z,25.24
2022-08-17T11:03:00.037Z,25.40
2022-08-17T11:05:59.754Z,24.98
2022-08-17T11:09:32.200Z,26.60
2022-08-17T11:12:16.169Z,24.27
2022-08-17T11:15:01.661Z,22.81
2022-08-17T11:17:45.844Z,21.99
2022-08-17T11:20:49.089Z,22.32
2022-08-17T11:24:06.920Z,21.52
2022-08-17T11:26:51.777Z,21.98
2022-08-17T11:29:39.300Z,22.66
2022-08-17T11:32:48.675Z,24.10
2022-08-17T11:35:44.039Z,25.24
2022-08-17T11:38:29.182Z,27.38
2022-08-17T11:41:29.565Z,26.65
2022-08-17T11:44:39.971Z,26.05
2022-08-17T11:48:26.502Z,24.00
2022-08-17T11:51:28.932Z,22.76
2022-08-17T11:57:23.902Z,23.66
2022-08-17T12:00:08.168Z,23.76
2022-08-17T12:02:51.264Z,23.17
2022-08-17T12:05:31.633Z,22.50
2022-08-17T12:08:20.930Z,21.67
2022-08-17T12:11:12.013Z,21.36
2022-08-17T12:13:53.599Z,22.94
2022-08-17T12:16:37.159Z,23.71
2022-08-17T12:19:24.287Z,24.49
2022-08-17T12:22:11.115Z,24.50
2022-08-17T12:24:57.981Z,23.74
2022-08-17T12:27:48.928Z,23.88
2022-08-17T12:30:38.982Z,23.48
2022-08-17T12:33:25.350Z,22.93
2022-08-17T12:36:07.389Z,22.60
2022-08-17T12:38:48.183Z,22.20
2022-08-17T12:41:37.087Z,22.95
2022-08-17T12:44:21.501Z,22.58
2022-08-17T12:47:12.014Z,22.88
2022-08-17T12:49:53.087Z,22.55
2022-08-17T12:52:31.668Z,22.76
2022-08-17T12:55:17.727Z,22.86
2022-08-17T12:57:59.071Z,22.16
2022-08-17T13:00:49.040Z,21.56
2022-08-17T13:03:32.989Z,21.70
2022-08-17T13:06:21.190Z,21.67
2022-08-17T13:09:00.521Z,21.43
2022-08-17T13:11:42.958Z,22.37
2022-08-17T13:14:21.090Z,22.08
2022-08-17T13:17:07.381Z,21.96
2022-08-17T13:19:57.759Z,21.01
2022-08-17T13:22:35.261Z,21.43
2022-08-17T13:25:19.692Z,21.85
2022-08-17T13:27:59.858Z,21.92
2022-08-17T13:30:37.354Z,22.69
2022-08-17T13:33:43.695Z,23.26
2022-08-17T13:36:31.697Z,23.28
2022-08-17T13:39:30.489Z,22.77
2022-08-17T13:42:51.556Z,23.27
2022-08-17T13:45:39.019Z,24.09
2022-08-17T13:48:17.656Z,24.05
2022-08-17T13:50:53.932Z,24.16
2022-08-17T13:53:52.393Z,24.78
2022-08-17T13:56:53.238Z,25.11
2022-08-17T13:59:53.041Z,25.45
2022-08-17T14:02:32.352Z,25.21
2022-08-17T14:05:13.758Z,25.58
2022-08-17T14:07:53.333Z,25.64
2022-08-17T14:10:30.526Z,26.42
2022-08-17T14:13:09.190Z,26.54
2022-08-17T14:15:56.179Z,26.59
2022-08-17T14:18:56.166Z,26.85
2022-08-17T14:21:39.263Z,27.12
2022-08-17T14:24:34.166Z,27.29
2022-08-17T14:27:13.119Z,27.37
2022-08-17T14:29:53.750Z,27.87
2022-08-17T14:32:34.981Z,28.42
2022-08-17T14:35:14.551Z,29.19
2022-08-17T14:37:53.051Z,29.05
2022-08-17T14:40:32.327Z,29.25
2022-08-17T14:43:10.116Z,29.15
2022-08-17T14:45:47.340Z,29.61
2022-08-17T14:48:26.526Z,29.59
2022-08-17T14:51:03.935Z,30.06
2022-08-17T14:53:42.398Z,30.39
2022-08-17T14:56:19.774Z,30.65
2022-08-17T14:59:01.309Z,30.59
2022-08-17T15:01:43.057Z,31.02
2022-08-17T15:04:21.214Z,31.46
2022-08-17T15:06:57.905Z,31.00
2022-08-17T15:09:36.713Z,30.58
2022-08-17T15:12:17.007Z,29.81
2022-08-17T15:14:58.975Z,28.97
2022-08-17T15:17:46.887Z,27.24
2022-08-17T15:20:27.861Z,25.38
2022-08-17T15:23:06.360Z,24.53
2022-08-17T15:25:42.820Z,25.29
2022-08-17T15:28:21.156Z,25.50
2022-08-17T15:30:58.912Z,25.24
2022-08-17T15:33:38.948Z,24.34
2022-08-17T15:36:20.191Z,23.77
2022-08-17T15:39:03.857Z,23.59
2022-08-17T15:41:43.137Z,23.86
2022-08-17T15:44:32.606Z,24.11
2022-08-17T15:47:15.848Z,22.21
2022-08-17T15:50:00.149Z,22.42
2022-08-17T15:52:40.663Z,23.36
2022-08-17T15:55:23.979Z,23.86
2022-08-17T15:58:00.869Z,24.49
2022-08-17T16:00:51.596Z,24.77
2022-08-17T16:04:01.136Z,25.50
2022-08-17T16:06:43.206Z,26.11
2022-08-17T16:09:23.105Z,27.75
2022-08-17T16:12:12.606Z,27.68
2022-08-17T16:14:52.034Z,28.32
2022-08-17T16:17:39.820Z,28.37
2022-08-17T16:20:19.961Z,28.79
2022-08-17T16:23:03.825Z,28.95
2022-08-17T16:25:53.534Z,29.77
2022-08-17T16:28:36.192Z,30.59
2022-08-17T16:31:16.702Z,30.71
2022-08-17T16:34:09.018Z,31.99
2022-08-17T16:36:58.653Z,32.76
2022-08-17T16:39:40.117Z,33.27
2022-08-17T16:42:35.613Z,33.55
2022-08-17T16:45:17.036Z,33.54
2022-08-17T16:47:56.545Z,34.00
2022-08-17T16:50:36.472Z,34.07
2022-08-17T16:53:19.460Z,34.65
2022-08-17T16:55:59.041Z,36.12
2022-08-17T16:58:43.454Z,37.48
2022-08-17T17:01:26.406Z,38.02
2022-08-17T17:04:07.353Z,38.58
2022-08-17T17:07:12.990Z,39.80
2022-08-17T17:09:56.509Z,40.82
2022-08-17T17:13:02.071Z,41.18
2022-08-17T17:15:47.708Z,42.38
2022-08-17T17:18:31.604Z,43.41
2022-08-17T17:21:10.659Z,44.03
2022-08-17T17:24:02.467Z,44.05
2022-08-17T17:26:52.770Z,44.77
2022-08-17T17:30:04.447Z,45.06
2022-08-17T17:32:52.089Z,46.35
2022-08-17T17:35:39.655Z,45.31
2022-08-17T17:38:22.111Z,45.65
2022-08-17T17:41:11.677Z,45.49
2022-08-17T17:43:51.166Z,47.51
2022-08-17T17:46:43.029Z,47.30
2022-08-17T17:49:21.373Z,48.84
2022-08-17T17:52:09.112Z,47.56
2022-08-17T17:55:18.483Z,49.12
2022-08-17T17:58:11.698Z,49.47
2022-08-17T18:01:29.065Z,49.12
2022-08-17T18:04:50.109Z,48.75
2022-08-17T18:08:10.696Z,50.97
2022-08-17T18:11:24.503Z,50.89
2022-08-17T18:14:09.698Z,49.33
2022-08-17T18:16:49.469Z,52.68
2022-08-17T18:19:28.927Z,53.77
2022-08-17T18:22:14.037Z,54.59
2022-08-17T18:24:58.553Z,51.36
2022-08-17T18:27:42.797Z,51.00
2022-08-17T18:30:16.290Z,50.16
2022-08-17T18:32:56.136Z,51.63
2022-08-17T18:35:35.452Z,50.40
2022-08-17T18:38:30.046Z,50.56
2022-08-17T18:41:25.759Z,50.59
2022-08-17T18:44:06.865Z,53.29
2022-08-17T18:46:46.015Z,54.89
2022-08-17T18:49:32.912Z,55.83
2022-08-17T18:52:16.286Z,55.87
2022-08-17T18:55:12.958Z,56.97
2022-08-17T18:57:55.662Z,56.84
2022-08-17T19:00:33.149Z,57.62
2022-08-17T19:03:19.853Z,58.31
2022-08-17T19:06:22.975Z,56.56
2022-08-17T19:09:00.103Z,54.74
2022-08-17T19:11:41.822Z,55.39
2022-08-17T19:14:21.435Z,56.25
2022-08-17T19:17:23.838Z,57.49
2022-08-17T19:20:24.645Z,57.25
2022-08-17T19:23:31.907Z,57.95
2022-08-17T19:26:17.783Z,56.46
2022-08-17T19:29:23.034Z,55.55
2022-08-17T19:32:00.643Z,55.71
2022-08-17T19:34:41.091Z,54.32
2022-08-17T19:37:45.838Z,54.04
2022-08-17T19:41:04.968Z,53.39
2022-08-17T19:43:45.058Z,53.28
2022-08-17T19:47:01.355Z,52.92
2022-08-17T19:49:49.442Z,52.35
2022-08-17T19:53:04.108Z,52.23
2022-08-17T19:56:00.869Z,52.60
2022-08-17T19:58:56.626Z,52.69
2022-08-17T20:01:35.009Z,52.71
2022-08-17T20:04:25.972Z,53.08
2022-08-17T20:07:28.560Z,53.48
2022-08-17T20:10:12.178Z,54.31
2022-08-17T20:12:53.698Z,54.49
2022-08-17T20:15:32.316Z,54.75
2022-08-17T20:18:13.919Z,54.85
2022-08-17T20:21:06.020Z,55.39
2022-08-17T20:24:18.157Z,55.54
2022-08-17T20:27:15.965Z,55.88
2022-08-17T20:30:02.590Z,56.25
2022-08-17T20:32:58.380Z,56.84
2022-08-17T20:35:37.886Z,57.08
2022-08-17T20:38:33.610Z,57.33
2022-08-17T20:41:23.239Z,57.10
2022-08-17T20:44:06.300Z,57.53
2022-08-17T20:47:01.536Z,57.57
2022-08-17T20:49:52.643Z,57.87
2022-08-17T20:52:53.134Z,58.03
2022-08-17T20:55:52.408Z,58.33
2022-08-17T20:58:30.796Z,58.35
2022-08-17T21:01:23.986Z,59.31
2022-08-17T21:04:04.710Z,59.29
2022-08-17T21:07:21.320Z,59.24
2022-08-17T21:10:18.910Z,59.97
2022-08-17T21:12:57.429Z,60.59
2022-08-17T21:15:47.308Z,60.99
2022-08-17T21:18:44.891Z,61.06
2022-08-17T21:21:42.621Z,61.45
2022-08-17T21:24:49.375Z,61.30
2022-08-17T21:28:03.137Z,61.37
2022-08-17T21:30:46.238Z,62.00
2022-08-17T21:33:26.147Z,61.72
2022-08-17T21:36:00.988Z,61.99
2022-08-17T21:38:42.689Z,62.25
2022-08-17T21:41:27.450Z,61.94
2022-08-17T21:44:22.046Z,61.81
2022-08-17T21:46:58.945Z,62.52
2022-08-17T21:49:39.593Z,62.33
2022-08-17T21:52:25.084Z,62.21
2022-08-17T21:55:04.609Z,62.48
2022-08-17T21:58:12.168Z,62.77
2022-08-17T22:00:43.011Z,63.03
2022-08-17T22:03:34.148Z,63.31
2022-08-17T22:06:30.399Z,63.32
2022-08-17T22:09:12.902Z,63.12
2022-08-17T22:11:50.691Z,63.20
2022-08-17T22:14:52.345Z,62.64
2022-08-17T22:17:48.061Z,62.92
2022-08-17T22:20:29.948Z,63.31
2022-08-17T22:23:21.380Z,63.46
2022-08-17T22:26:09.473Z,63.29
2022-08-17T22:28:48.767Z,63.28
2022-08-17T22:31:33.610Z,63.24
2022-08-17T22:34:18.048Z,63.34
2022-08-17T22:37:19.238Z,63.36
2022-08-17T22:40:02.456Z,63.92
2022-08-17T22:42:54.215Z,64.16
2022-08-17T22:45:32.141Z,63.93
2022-08-17T22:48:19.906Z,64.12
2022-08-17T22:51:13.289Z,64.06
2022-08-17T22:54:14.086Z,64.02
2022-08-17T22:57:11.617Z,63.94
2022-08-17T22:59:56.362Z,64.08
2022-08-17T23:02:54.200Z,64.48
2022-08-17T23:05:37.754Z,64.64
2022-08-17T23:08:17.309Z,64.35
2022-08-17T23:10:57.983Z,64.15
2022-08-17T23:13:39.086Z,65.13
2022-08-17T23:16:16.532Z,65.01
2022-08-17T23:18:57.026Z,64.85
2022-08-17T23:21:39.682Z,65.58
2022-08-17T23:24:26.269Z,65.08
2022-08-17T23:27:08.142Z,65.22
2022-08-17T23:29:47.581Z,65.31
2022-08-17T23:32:26.331Z,65.15
2022-08-17T23:35:08.930Z,65.55
2022-08-17T23:37:46.908Z,65.55
2022-08-17T23:40:27.230Z,65.24
2022-08-17T23:43:17.548Z,65.27
2022-08-17T23:46:02.590Z,65.44
2022-08-17T23:48:41.488Z,65.40
2022-08-17T23:51:22.878Z,65.39
2022-08-17T23:54:11.031Z,65.44
2022-08-17T23:56:51.232Z,66.02
2022-08-17T23:59:29.853Z,66.34
